sensor_id;sensor_type;location;lat;lon;timestamp;temperature;humidity
18508;DHT22;9383;50.928;12.116;2022-08-06T14:53:40;21.10;52.00
18508;DHT22;9383;50.928;12.116;2022-08-06T14:56:07;21.00;51.50
18508;DHT22;9383;50.928;12.116;2022-08-06T15:10:49;21.20;51.80
18508;DHT22;9383;50.928;12.116;2022-08-06T15:13:15;21.00;52.40
18508;DHT22;9383;50.928;12.116;2022-08-06T15:15:41;21.10;51.20
18508;DHT22;9383;50.928;12.116;2022-08-06T15:18:08;21.10;51.90
18508;DHT22;9383;50.928;12.116;2022-08-06T15:20:34;21.10;50.90
18508;DHT22;9383;50.928;12.116;2022-08-06T15:35:20;21.00;49.40
18508;DHT22;9383;50.928;12.116;2022-08-06T15:53:12;21.20;50.50
18508;DHT22;9383;50.928;12.116;2022-08-06T15:58:06;21.20;50.80
18508;DHT22;9383;50.928;12.116;2022-08-06T16:00:33;21.20;50.60
18508;DHT22;9383;50.928;12.116;2022-08-06T16:03:01;21.20;51.30
18508;DHT22;9383;50.928;12.116;2022-08-06T16:05:27;21.20;51.80
18508;DHT22;9383;50.928;12.116;2022-08-06T16:07:53;21.20;52.00
18508;DHT22;9383;50.928;12.116;2022-08-06T16:10:19;21.30;52.00
18508;DHT22;9383;50.928;12.116;2022-08-06T16:13:23;21.30;51.50
18508;DHT22;9383;50.928;12.116;2022-08-06T16:15:50;21.30;50.20
18508;DHT22;9383;50.928;12.116;2022-08-06T16:18:20;21.30;50.70
18508;DHT22;9383;50.928;12.116;2022-08-06T16:20:48;21.30;50.70
18508;DHT22;9383;50.928;12.116;2022-08-06T16:23:16;21.30;49.60
18508;DHT22;9383;50.928;12.116;2022-08-06T16:25:43;21.30;48.50
18508;DHT22;9383;50.928;12.116;2022-08-06T16:28:10;21.10;48.20
18508;DHT22;9383;50.928;12.116;2022-08-06T16:30:37;21.00;48.50
18508;DHT22;9383;50.928;12.116;2022-08-06T16:33:03;21.00;49.50
18508;DHT22;9383;50.928;12.116;2022-08-06T16:35:30;20.90;49.90
18508;DHT22;9383;50.928;12.116;2022-08-06T16:37:56;20.90;49.90
18508;DHT22;9383;50.928;12.116;2022-08-06T16:40:23;20.90;50.40
18508;DHT22;9383;50.928;12.116;2022-08-06T16:42:52;20.90;50.40
18508;DHT22;9383;50.928;12.116;2022-08-06T16:45:19;20.90;50.00
18508;DHT22;9383;50.928;12.116;2022-08-06T16:47:46;21.10;50.30
18508;DHT22;9383;50.928;12.116;2022-08-06T16:50:12;20.90;50.70
18508;DHT22;9383;50.928;12.116;2022-08-06T16:52:39;20.80;50.40
18508;DHT22;9383;50.928;12.116;2022-08-06T16:55:07;20.90;50.70
18508;DHT22;9383;50.928;12.116;2022-08-06T16:57:34;20.80;49.50
18508;DHT22;9383;50.928;12.116;2022-08-06T17:00:02;20.70;49.60
18508;DHT22;9383;50.928;12.116;2022-08-06T17:02:30;21.20;50.50
18508;DHT22;9383;50.928;12.116;2022-08-06T17:05:11;20.70;49.80
18508;DHT22;9383;50.928;12.116;2022-08-06T17:07:39;20.70;50.00
18508;DHT22;9383;50.928;12.116;2022-08-06T17:10:09;20.70;49.90
18508;DHT22;9383;50.928;12.116;2022-08-06T17:12:37;20.60;49.90
18508;DHT22;9383;50.928;12.116;2022-08-06T17:15:05;20.60;50.30
18508;DHT22;9383;50.928;12.116;2022-08-06T17:17:32;20.50;49.80
18508;DHT22;9383;50.928;12.116;2022-08-06T17:19:58;20.50;50.70
18508;DHT22;9383;50.928;12.116;2022-08-06T17:22:24;20.50;51.10
18508;DHT22;9383;50.928;12.116;2022-08-06T17:24:50;20.50;50.90
18508;DHT22;9383;50.928;12.116;2022-08-06T17:27:17;20.50;50.60
18508;DHT22;9383;50.928;12.116;2022-08-06T17:29:44;20.50;51.00
18508;DHT22;9383;50.928;12.116;2022-08-06T17:32:12;20.40;50.40
18508;DHT22;9383;50.928;12.116;2022-08-06T17:34:40;20.40;50.90
18508;DHT22;9383;50.928;12.116;2022-08-06T17:37:06;20.30;50.60
18508;DHT22;9383;50.928;12.116;2022-08-06T17:39:33;20.30;51.10
18508;DHT22;9383;50.928;12.116;2022-08-06T17:41:59;20.30;51.50
18508;DHT22;9383;50.928;12.116;2022-08-06T17:44:25;20.30;51.50
18508;DHT22;9383;50.928;12.116;2022-08-06T17:46:52;20.20;51.60
18508;DHT22;9383;50.928;12.116;2022-08-06T17:49:18;20.20;52.60
18508;DHT22;9383;50.928;12.116;2022-08-06T17:51:49;20.20;51.40
18508;DHT22;9383;50.928;12.116;2022-08-06T17:54:15;20.20;51.90
18508;DHT22;9383;50.928;12.116;2022-08-06T17:56:42;20.10;52.30
18508;DHT22;9383;50.928;12.116;2022-08-06T17:59:10;20.10;52.60
18508;DHT22;9383;50.928;12.116;2022-08-06T18:01:37;20.10;52.70
18508;DHT22;9383;50.928;12.116;2022-08-06T18:04:03;20.10;52.50
18508;DHT22;9383;50.928;12.116;2022-08-06T18:06:31;20.10;52.90
18508;DHT22;9383;50.928;12.116;2022-08-06T18:08:58;20.00;53.30
18508;DHT22;9383;50.928;12.116;2022-08-06T18:11:26;20.00;53.50
18508;DHT22;9383;50.928;12.116;2022-08-06T18:13:53;20.00;53.40
18508;DHT22;9383;50.928;12.116;2022-08-06T18:16:21;20.00;53.70
18508;DHT22;9383;50.928;12.116;2022-08-06T18:18:48;19.90;54.20
18508;DHT22;9383;50.928;12.116;2022-08-06T18:21:16;19.90;54.70
18508;DHT22;9383;50.928;12.116;2022-08-06T18:23:44;19.80;54.80
18508;DHT22;9383;50.928;12.116;2022-08-06T18:26:10;20.40;55.20
18508;DHT22;9383;50.928;12.116;2022-08-06T18:28:38;19.60;54.60
18508;DHT22;9383;50.928;12.116;2022-08-06T18:31:06;19.50;55.10
18508;DHT22;9383;50.928;12.116;2022-08-06T18:33:34;19.50;55.20
18508;DHT22;9383;50.928;12.116;2022-08-06T18:36:04;21.20;56.40
18508;DHT22;9383;50.928;12.116;2022-08-06T18:38:30;19.30;55.60
18508;DHT22;9383;50.928;12.116;2022-08-06T18:40:56;19.10;55.60
18508;DHT22;9383;50.928;12.116;2022-08-06T18:43:23;19.10;56.90
18508;DHT22;9383;50.928;12.116;2022-08-06T18:45:49;18.90;56.90
18508;DHT22;9383;50.928;12.116;2022-08-06T18:48:18;18.90;58.50
18508;DHT22;9383;50.928;12.116;2022-08-06T18:50:44;18.70;58.00
18508;DHT22;9383;50.928;12.116;2022-08-06T18:53:10;18.60;58.30
18508;DHT22;9383;50.928;12.116;2022-08-06T18:55:37;18.60;58.50
18508;DHT22;9383;50.928;12.116;2022-08-06T18:58:03;18.40;58.30
18508;DHT22;9383;50.928;12.116;2022-08-06T19:00:29;18.40;59.10
18508;DHT22;9383;50.928;12.116;2022-08-06T19:02:56;18.30;59.40
18508;DHT22;9383;50.928;12.116;2022-08-06T19:05:23;18.10;59.30
18508;DHT22;9383;50.928;12.116;2022-08-06T19:08:20;18.10;59.50
18508;DHT22;9383;50.928;12.116;2022-08-06T19:10:46;17.90;59.60
18508;DHT22;9383;50.928;12.116;2022-08-06T19:13:12;17.80;59.80
18508;DHT22;9383;50.928;12.116;2022-08-06T19:15:38;17.80;60.00
18508;DHT22;9383;50.928;12.116;2022-08-06T19:18:04;17.70;60.40
18508;DHT22;9383;50.928;12.116;2022-08-06T19:20:30;16.60;60.70
18508;DHT22;9383;50.928;12.116;2022-08-06T19:22:57;17.60;61.80
18508;DHT22;9383;50.928;12.116;2022-08-06T19:25:23;17.60;62.40
18508;DHT22;9383;50.928;12.116;2022-08-06T19:27:49;17.50;62.40
18508;DHT22;9383;50.928;12.116;2022-08-06T19:30:16;17.50;62.90
18508;DHT22;9383;50.928;12.116;2022-08-06T19:32:42;17.40;62.70
18508;DHT22;9383;50.928;12.116;2022-08-06T19:35:09;17.40;63.20
18508;DHT22;9383;50.928;12.116;2022-08-06T19:37:35;17.40;63.10
18508;DHT22;9383;50.928;12.116;2022-08-06T19:40:02;17.30;62.80
18508;DHT22;9383;50.928;12.116;2022-08-06T19:42:47;17.30;63.60
18508;DHT22;9383;50.928;12.116;2022-08-06T19:45:14;17.20;63.80
18508;DHT22;9383;50.928;12.116;2022-08-06T19:47:40;17.10;64.10
18508;DHT22;9383;50.928;12.116;2022-08-06T19:50:06;17.10;64.30
18508;DHT22;9383;50.928;12.116;2022-08-06T19:52:33;17.00;64.20
18508;DHT22;9383;50.928;12.116;2022-08-06T19:54:59;16.90;64.70
18508;DHT22;9383;50.928;12.116;2022-08-06T19:57:25;16.90;64.20
18508;DHT22;9383;50.928;12.116;2022-08-06T19:59:52;16.80;63.60
18508;DHT22;9383;50.928;12.116;2022-08-06T20:02:18;16.40;64.00
18508;DHT22;9383;50.928;12.116;2022-08-06T20:04:45;16.60;64.40
18508;DHT22;9383;50.928;12.116;2022-08-06T20:07:12;16.60;65.10
18508;DHT22;9383;50.928;12.116;2022-08-06T20:09:39;16.50;65.60
18508;DHT22;9383;50.928;12.116;2022-08-06T20:12:05;16.40;65.70
18508;DHT22;9383;50.928;12.116;2022-08-06T20:14:32;16.40;65.80
18508;DHT22;9383;50.928;12.116;2022-08-06T20:16:59;16.30;66.00
18508;DHT22;9383;50.928;12.116;2022-08-06T20:19:26;16.10;66.10
18508;DHT22;9383;50.928;12.116;2022-08-06T20:21:53;16.10;66.10
18508;DHT22;9383;50.928;12.116;2022-08-06T20:24:20;16.10;66.50
18508;DHT22;9383;50.928;12.116;2022-08-06T20:26:46;16.00;67.00
18508;DHT22;9383;50.928;12.116;2022-08-06T20:29:12;16.00;67.40
18508;DHT22;9383;50.928;12.116;2022-08-06T20:31:38;15.80;67.20
18508;DHT22;9383;50.928;12.116;2022-08-06T20:34:04;15.80;67.40
18508;DHT22;9383;50.928;12.116;2022-08-06T20:36:31;15.80;67.60
18508;DHT22;9383;50.928;12.116;2022-08-06T20:38:58;15.70;67.70
18508;DHT22;9383;50.928;12.116;2022-08-06T20:41:26;15.60;68.00
18508;DHT22;9383;50.928;12.116;2022-08-06T20:43:53;15.50;68.10
18508;DHT22;9383;50.928;12.116;2022-08-06T20:46:19;15.50;68.40
18508;DHT22;9383;50.928;12.116;2022-08-06T20:48:46;15.40;68.60
18508;DHT22;9383;50.928;12.116;2022-08-06T20:51:12;15.30;68.50
18508;DHT22;9383;50.928;12.116;2022-08-06T20:53:38;15.30;69.00
18508;DHT22;9383;50.928;12.116;2022-08-06T20:56:04;15.30;69.20
18508;DHT22;9383;50.928;12.116;2022-08-06T20:58:31;15.20;69.60
18508;DHT22;9383;50.928;12.116;2022-08-06T21:00:57;15.20;69.70
18508;DHT22;9383;50.928;12.116;2022-08-06T21:03:23;15.10;69.70
18508;DHT22;9383;50.928;12.116;2022-08-06T21:05:50;15.10;70.10
18508;DHT22;9383;50.928;12.116;2022-08-06T21:08:17;15.10;70.40
18508;DHT22;9383;50.928;12.116;2022-08-06T21:10:44;15.00;70.60
18508;DHT22;9383;50.928;12.116;2022-08-06T21:13:10;15.00;70.60
18508;DHT22;9383;50.928;12.116;2022-08-06T21:15:36;15.70;71.20
18508;DHT22;9383;50.928;12.116;2022-08-06T21:18:05;14.80;70.40
18508;DHT22;9383;50.928;12.116;2022-08-06T21:20:31;14.80;70.90
18508;DHT22;9383;50.928;12.116;2022-08-06T21:22:58;14.80;71.00
18508;DHT22;9383;50.928;12.116;2022-08-06T21:25:25;14.70;71.10
18508;DHT22;9383;50.928;12.116;2022-08-06T21:27:51;14.70;71.30
18508;DHT22;9383;50.928;12.116;2022-08-06T21:30:20;14.70;71.50
18508;DHT22;9383;50.928;12.116;2022-08-06T21:32:48;14.60;71.60
18508;DHT22;9383;50.928;12.116;2022-08-06T21:35:16;14.60;71.80
18508;DHT22;9383;50.928;12.116;2022-08-06T21:37:42;14.60;71.90
18508;DHT22;9383;50.928;12.116;2022-08-06T21:40:10;15.00;72.20
18508;DHT22;9383;50.928;12.116;2022-08-06T21:42:37;14.50;72.00
18508;DHT22;9383;50.928;12.116;2022-08-06T21:45:05;14.50;72.00
18508;DHT22;9383;50.928;12.116;2022-08-06T21:47:32;14.40;71.90
18508;DHT22;9383;50.928;12.116;2022-08-06T21:49:58;14.40;72.00
18508;DHT22;9383;50.928;12.116;2022-08-06T21:52:24;14.30;72.00
18508;DHT22;9383;50.928;12.116;2022-08-06T21:54:51;14.20;72.10
18508;DHT22;9383;50.928;12.116;2022-08-06T21:57:18;14.80;72.60
18508;DHT22;9383;50.928;12.116;2022-08-06T21:59:45;14.20;72.60
18508;DHT22;9383;50.928;12.116;2022-08-06T22:02:11;14.10;72.50
18508;DHT22;9383;50.928;12.116;2022-08-06T22:04:37;14.00;72.60
18508;DHT22;9383;50.928;12.116;2022-08-06T22:07:03;14.00;72.80
18508;DHT22;9383;50.928;12.116;2022-08-06T22:09:30;13.90;73.00
18508;DHT22;9383;50.928;12.116;2022-08-06T22:11:56;13.90;73.20
18508;DHT22;9383;50.928;12.116;2022-08-06T23:03:25;13.00;77.20
18508;DHT22;9383;50.928;12.116;2022-08-06T23:24:04;12.50;79.40
